Time;durP1;ratioP1;P1;durP2;ratioP2;P2;SDS_P1;SDS_P2;PMS_P1;PMS_P2;Temp;Humidity;BMP_temperature;BMP_pressure;BME280_temperature;BME280_humidity;BME280_pressure;Samples;Min_cycle;Max_cycle;Signal;HPM_P1;HPM_P2
2022/09/01 00:01:23;;;;;;;;;;;;;;;24.70;48.14;99574.31;4470543;32;33983;-61
2022/09/01 00:03:51;;;;;;;;;;;;;;;24.60;48.88;99582.94;4473914;32;33453;-61
2022/09/01 00:06:21;;;;;;;;;;;;;;;24.72;48.26;99584.00;4473811;32;34327;-61
2022/09/01 00:08:49;;;;;;;;;;;;;;;24.47;48.38;99591.13;4472950;32;34354;-61
2022/09/01 00:11:17;;;;;;;;;;;;;;;24.40;48.15;99588.34;4470439;32;34267;-60
2022/09/01 00:13:44;;;;;;;;;;;;;;;24.11;50.12;99595.03;4470527;32;33478;-61
2022/09/01 00:16:14;;;;;;;;;;;;;;;24.03;51.19;99598.78;4470422;32;34109;-60
2022/09/01 00:18:42;;;;;;;;;;;;;;;24.16;50.63;99600.69;4470505;32;34144;-60
2022/09/01 00:21:09;;;;;;;;;;;;;;;24.10;50.96;99599.63;4470616;32;34205;-61
2022/09/01 00:23:37;;;;;;;;;;;;;;;24.05;51.30;99602.16;4470734;32;31998;-60
2022/09/01 00:26:04;;;;;;;;;;;;;;;24.09;51.31;99600.69;4470652;32;34095;-61
2022/09/01 00:28:32;;;;;;;;;;;;;;;23.65;51.08;99596.47;4470488;32;35494;-59
2022/09/01 00:31:00;;;;;;;;;;;;;;;23.92;50.48;99591.19;4470274;32;34002;-59
2022/09/01 00:33:28;;;;;;;;;;;;;;;23.92;51.52;99596.66;4470952;32;32282;-60
2022/09/01 00:35:55;;;;;;;;;;;;;;;23.57;51.78;99599.41;4470909;32;34076;-61
2022/09/01 00:38:22;;;;;;;;;;;;;;;23.02;52.61;99610.19;4482487;32;33234;-61
2022/09/01 00:40:50;;;;;;;;;;;;;;;23.35;52.14;99604.09;4469929;32;32674;-60
2022/09/01 00:43:22;;;;;;;;;;;;;;;23.53;51.33;99600.84;4470353;32;32178;-61
2022/09/01 00:45:50;;;;;;;;;;;;;;;23.55;50.08;99596.00;4470623;32;32784;-60
2022/09/01 00:48:20;;;;;;;;;;;;;;;23.44;51.89;99604.78;4470564;32;34120;-60
2022/09/01 00:50:47;;;;;;;;;;;;;;;23.63;51.24;99611.41;4470140;32;34509;-60
2022/09/01 00:53:18;;;;;;;;;;;;;;;23.62;52.19;99601.50;4470230;32;33561;-60
2022/09/01 00:55:46;;;;;;;;;;;;;;;23.66;52.42;99609.12;4470367;32;34330;-60
2022/09/01 00:58:13;;;;;;;;;;;;;;;23.71;51.76;99614.00;4470308;32;34460;-60
2022/09/01 01:00:46;;;;;;;;;;;;;;;23.71;51.83;99609.38;4470241;32;33991;-62
2022/09/01 01:03:13;;;;;;;;;;;;;;;23.54;51.39;99612.63;4469249;32;33181;-62
2022/09/01 01:05:53;;;;;;;;;;;;;;;23.43;51.92;99614.00;4470358;32;35007;-61
2022/09/01 01:08:26;;;;;;;;;;;;;;;23.64;50.13;99619.41;4470520;32;34142;-61
2022/09/01 01:10:53;;;;;;;;;;;;;;;23.59;50.54;99612.84;4465062;32;34080;-61
2022/09/01 01:13:24;;;;;;;;;;;;;;;23.60;50.31;99614.56;4473135;32;33253;-62
2022/09/01 01:15:52;;;;;;;;;;;;;;;23.41;50.40;99605.19;4473014;32;34870;-62
2022/09/01 01:18:19;;;;;;;;;;;;;;;23.35;49.86;99601.38;4473798;32;34388;-61
2022/09/01 01:23:44;;;;;;;;;;;;;;;23.12;51.17;99601.66;4466920;32;32762;-61
2022/09/01 01:26:12;;;;;;;;;;;;;;;23.13;51.63;99606.06;4464843;32;34809;-60
2022/09/01 01:28:40;;;;;;;;;;;;;;;23.20;51.02;99608.84;4473706;32;32908;-60
2022/09/01 01:31:12;;;;;;;;;;;;;;;23.19;50.69;99607.16;4470575;32;34033;-61
2022/09/01 01:33:45;;;;;;;;;;;;;;;23.01;51.49;99610.38;4463059;32;33617;-61
2022/09/01 01:36:14;;;;;;;;;;;;;;;23.21;51.14;99607.78;4470401;32;35722;-61
2022/09/01 01:38:46;;;;;;;;;;;;;;;23.04;52.32;99606.41;4474152;32;32984;-61
2022/09/01 01:41:15;;;;;;;;;;;;;;;23.20;51.71;99598.75;4471564;32;35468;-61
2022/09/01 01:43:42;;;;;;;;;;;;;;;23.31;51.74;99605.56;4472253;32;34677;-62
2022/09/01 01:46:10;;;;;;;;;;;;;;;23.33;50.80;99605.34;4471894;32;34027;-61
2022/09/01 01:48:40;;;;;;;;;;;;;;;23.24;50.50;99599.19;4472661;32;34239;-61
2022/09/01 01:51:09;;;;;;;;;;;;;;;22.98;51.40;99589.78;4472508;32;33612;-61
2022/09/01 01:53:36;;;;;;;;;;;;;;;23.07;51.47;99590.47;4471280;32;31961;-61
2022/09/01 01:56:05;;;;;;;;;;;;;;;22.90;51.71;99589.91;4474117;32;34321;-61
2022/09/01 01:58:34;;;;;;;;;;;;;;;22.86;51.99;99585.91;4472186;32;34280;-61
2022/09/01 02:01:05;;;;;;;;;;;;;;;22.69;51.83;99577.13;4472248;32;32774;-61
2022/09/01 02:03:37;;;;;;;;;;;;;;;22.65;52.69;99573.13;4470223;32;33060;-62
2022/09/01 02:06:07;;;;;;;;;;;;;;;22.64;53.05;99570.59;4471866;32;33657;-61
2022/09/01 02:08:35;;;;;;;;;;;;;;;22.83;51.39;99571.81;4472784;32;35075;-61
2022/09/01 02:11:03;;;;;;;;;;;;;;;22.69;51.63;99573.56;4471791;32;34219;-61
2022/09/01 02:13:31;;;;;;;;;;;;;;;22.63;53.07;99569.78;4472795;32;34480;-62
2022/09/01 02:16:00;;;;;;;;;;;;;;;22.76;52.47;99578.06;4471738;32;32867;-61
2022/09/01 02:18:29;;;;;;;;;;;;;;;;;;4472728;32;32770;-61
2022/09/01 02:21:00;;;;;;;;;;;;;;;22.25;54.12;99577.38;4472037;32;35146;-61
2022/09/01 02:23:28;;;;;;;;;;;;;;;22.68;53.10;99574.63;4469715;32;33387;-60
2022/09/01 02:25:59;;;;;;;;;;;;;;;22.87;52.44;99573.09;4471109;31;32436;-61
2022/09/01 02:28:44;;;;;;;;;;;;;;;23.02;51.96;99582.06;4472741;32;35608;-61
2022/09/01 02:31:11;;;;;;;;;;;;;;;22.93;52.23;99580.50;4475866;32;33533;-62
2022/09/01 02:33:39;;;;;;;;;;;;;;;22.84;52.19;99578.94;4471158;32;33584;-62
2022/09/01 02:36:09;;;;;;;;;;;;;;;22.58;52.29;99572.22;4471405;32;34267;-62
2022/09/01 02:38:36;;;;;;;;;;;;;;;22.71;51.86;99563.31;4473652;32;32642;-62
2022/09/01 02:41:05;;;;;;;;;;;;;;;22.84;51.41;99566.16;4463775;32;33043;-62
2022/09/01 02:43:33;;;;;;;;;;;;;;;22.97;50.88;99555.34;4467850;32;34491;-64
2022/09/01 02:46:00;;;;;;;;;;;;;;;22.98;51.10;99562.47;4471744;32;33932;-61
2022/09/01 02:48:31;;;;;;;;;;;;;;;23.16;50.91;99567.44;4463399;32;33837;-60
2022/09/01 02:51:00;;;;;;;;;;;;;;;23.15;51.53;99556.75;4474109;32;35172;-61
2022/09/01 02:53:28;;;;;;;;;;;;;;;22.96;51.03;99556.41;4470668;32;32688;-61
2022/09/01 02:55:59;;;;;;;;;;;;;;;22.93;51.48;99542.28;4471800;32;34388;-61
2022/09/01 02:58:27;;;;;;;;;;;;;;;22.73;52.31;99553.91;4469558;32;33683;-61
2022/09/01 03:00:55;;;;;;;;;;;;;;;22.67;52.18;99551.13;4474057;32;35170;-59
2022/09/01 03:03:23;;;;;;;;;;;;;;;22.25;53.21;99550.97;4469995;32;32687;-60
2022/09/01 03:05:55;;;;;;;;;;;;;;;22.57;52.20;99543.28;4475003;32;37422;-61
2022/09/01 03:08:23;;;;;;;;;;;;;;;22.45;53.23;99532.06;4475020;32;34247;-60
2022/09/01 03:10:52;;;;;;;;;;;;;;;22.54;53.22;99532.75;4473572;32;34255;-59
2022/09/01 03:13:21;;;;;;;;;;;;;;;22.70;51.93;99534.34;4472867;32;33183;-59
2022/09/01 03:15:49;;;;;;;;;;;;;;;22.51;52.60;99538.63;4471175;32;35088;-60
2022/09/01 03:18:17;;;;;;;;;;;;;;;22.60;51.10;99552.94;4474836;32;33330;-59
2022/09/01 03:20:45;;;;;;;;;;;;;;;22.66;50.28;99560.31;4474103;32;34973;-59
2022/09/01 03:23:13;;;;;;;;;;;;;;;22.63;50.60;99563.44;4481282;32;32266;-59
2022/09/01 03:25:46;;;;;;;;;;;;;;;22.62;50.75;99572.69;4482149;32;34047;-59
2022/09/01 03:28:14;;;;;;;;;;;;;;;22.72;50.47;99574.00;4484437;32;34972;-60
2022/09/01 03:30:49;;;;;;;;;;;;;;;22.56;51.59;99571.56;4479985;32;35213;-60
2022/09/01 03:33:17;;;;;;;;;;;;;;;22.75;51.46;99576.34;4470280;32;34484;-60
2022/09/01 03:35:45;;;;;;;;;;;;;;;22.52;52.71;99573.84;4478620;32;34279;-60
2022/09/01 03:38:17;;;;;;;;;;;;;;;22.16;52.81;99570.38;4484385;32;35067;-60
2022/09/01 03:40:48;;;;;;;;;;;;;;;22.35;52.62;99566.16;4473791;32;34552;-61
2022/09/01 03:43:16;;;;;;;;;;;;;;;21.62;54.04;99553.38;4483184;32;33147;-60
2022/09/01 03:45:44;;;;;;;;;;;;;;;21.90;53.68;99549.94;4481099;32;32896;-60
2022/09/01 03:48:15;;;;;;;;;;;;;;;21.68;54.70;99545.50;4479038;32;34473;-61
2022/09/01 03:50:46;;;;;;;;;;;;;;;22.64;51.05;99535.16;4482539;32;34215;-61
2022/09/01 03:53:15;;;;;;;;;;;;;;;22.79;51.20;99541.31;4481965;32;34459;-60
2022/09/01 03:55:44;;;;;;;;;;;;;;;22.62;51.98;99538.06;4481906;32;34066;-61
2022/09/01 03:58:13;;;;;;;;;;;;;;;22.95;51.37;99537.47;4483333;32;35331;-60
2022/09/01 04:00:42;;;;;;;;;;;;;;;23.01;50.86;99536.69;4482312;32;34261;-60
2022/09/01 04:03:20;;;;;;;;;;;;;;;23.14;51.13;99535.91;4480593;32;32008;-60
2022/09/01 04:05:55;;;;;;;;;;;;;;;22.56;52.03;99536.94;4482741;32;33628;-60
2022/09/01 04:08:26;;;;;;;;;;;;;;;22.60;52.07;99533.84;4484335;32;32865;-60
2022/09/01 04:11:01;;;;;;;;;;;;;;;22.33;51.93;99525.44;4481979;32;36210;-60
2022/09/01 04:13:29;;;;;;;;;;;;;;;;;;4482616;31;34118;-61
2022/09/01 04:15:56;;;;;;;;;;;;;;;22.27;52.67;99529.78;4480276;32;34166;-61
2022/09/01 04:18:24;;;;;;;;;;;;;;;22.28;53.00;99534.22;4483835;32;34293;-60
2022/09/01 04:20:53;;;;;;;;;;;;;;;22.43;52.51;99531.41;4482160;32;35217;-61
2022/09/01 04:23:32;;;;;;;;;;;;;;;22.70;51.55;99526.19;4482464;32;32146;-60
2022/09/01 04:26:07;;;;;;;;;;;;;;;22.78;51.19;99518.66;4478377;32;33476;-60
2022/09/01 04:28:39;;;;;;;;;;;;;;;22.60;51.38;99528.37;4470493;32;34277;-59
2022/09/01 04:31:08;;;;;;;;;;;;;;;22.75;51.04;99526.41;4479767;32;35202;-59
2022/09/01 04:33:36;;;;;;;;;;;;;;;22.55;51.28;99537.16;4484083;32;33368;-60
2022/09/01 04:36:05;;;;;;;;;;;;;;;23.01;49.86;99542.97;4479822;32;32835;-60
2022/09/01 04:38:35;;;;;;;;;;;;;;;22.90;50.22;99548.97;4480634;32;35462;-59
2022/09/01 04:41:06;;;;;;;;;;;;;;;22.99;49.64;99545.09;4481863;32;35249;-62
2022/09/01 04:43:34;;;;;;;;;;;;;;;22.97;49.96;99547.16;4485748;32;34825;-62
2022/09/01 04:46:02;;;;;;;;;;;;;;;22.98;49.46;99542.53;4480118;32;34085;-62
2022/09/01 04:48:30;;;;;;;;;;;;;;;23.00;50.17;99543.19;4480056;32;35448;-62
2022/09/01 04:50:58;;;;;;;;;;;;;;;22.93;50.90;99543.16;4481752;31;35269;-62
2022/09/01 04:53:25;;;;;;;;;;;;;;;22.68;51.06;99539.16;4485174;32;31980;-63
2022/09/01 04:55:54;;;;;;;;;;;;;;;22.83;50.75;99547.25;4481758;32;34288;-62
2022/09/01 04:58:23;;;;;;;;;;;;;;;22.95;50.65;99542.94;4482753;32;34100;-62
2022/09/01 05:00:50;;;;;;;;;;;;;;;23.01;49.21;99545.72;4479069;32;34187;-62
2022/09/01 05:03:22;;;;;;;;;;;;;;;23.02;49.47;99546.59;4479569;32;33494;-63
2022/09/01 05:05:52;;;;;;;;;;;;;;;23.00;50.38;99554.13;4483941;32;35284;-63
2022/09/01 05:08:22;;;;;;;;;;;;;;;23.05;50.01;99557.09;4476016;32;34177;-63
2022/09/01 05:10:54;;;;;;;;;;;;;;;23.04;50.56;99560.84;4478264;32;35220;-64
2022/09/01 05:13:23;;;;;;;;;;;;;;;22.91;51.05;99574.37;4481745;32;33458;-62
2022/09/01 05:16:01;;;;;;;;;;;;;;;22.97;49.99;99563.53;4481081;31;34143;-63
2022/09/01 05:18:29;;;;;;;;;;;;;;;22.39;52.03;99565.56;4482980;32;31925;-61
2022/09/01 05:20:56;;;;;;;;;;;;;;;22.65;51.42;99559.50;4483741;32;33759;-61
2022/09/01 05:23:25;;;;;;;;;;;;;;;22.74;50.92;99555.56;4482224;32;33132;-61
2022/09/01 05:25:53;;;;;;;;;;;;;;;22.82;50.71;99559.19;4474754;32;32806;-61
2022/09/01 05:28:24;;;;;;;;;;;;;;;22.33;52.14;99558.16;4481358;32;34155;-60
2022/09/01 05:30:54;;;;;;;;;;;;;;;22.63;50.96;99547.06;4484052;32;34379;-60
2022/09/01 05:33:22;;;;;;;;;;;;;;;22.94;50.32;99563.94;4480391;32;33463;-62
2022/09/01 05:35:54;;;;;;;;;;;;;;;22.90;50.75;99562.62;4480993;32;34291;-63
2022/09/01 05:38:23;;;;;;;;;;;;;;;23.01;51.27;99559.34;4483485;32;34636;-63
2022/09/01 05:40:57;;;;;;;;;;;;;;;22.42;52.52;99562.44;4481117;32;35269;-63
2022/09/01 05:43:26;;;;;;;;;;;;;;;22.64;51.25;99552.34;4484073;32;33081;-67
2022/09/01 05:45:54;;;;;;;;;;;;;;;22.93;50.91;99567.72;4483820;32;34258;-66
2022/09/01 05:48:38;;;;;;;;;;;;;;;22.80;51.32;99573.03;4481431;32;33942;-64
2022/09/01 05:51:07;;;;;;;;;;;;;;;22.87;51.42;99570.38;4482089;32;32634;-64
2022/09/01 05:53:58;;;;;;;;;;;;;;;22.93;50.85;99575.03;4482929;32;34520;-65
2022/09/01 05:56:26;;;;;;;;;;;;;;;22.73;51.94;99567.53;4479617;32;34200;-67
2022/09/01 05:58:54;;;;;;;;;;;;;;;22.70;52.18;99567.09;4481602;32;34765;-62
2022/09/01 06:01:42;;;;;;;;;;;;;;;22.41;52.59;99563.50;4482857;31;35603;-63
2022/09/01 06:04:16;;;;;;;;;;;;;;;22.07;53.26;99569.59;4483968;32;33099;-61
2022/09/01 06:06:45;;;;;;;;;;;;;;;22.10;52.64;99561.88;4475496;32;34134;-62
2022/09/01 06:09:37;;;;;;;;;;;;;;;22.39;51.68;99553.81;4477174;31;34976;-61
2022/09/01 06:12:05;;;;;;;;;;;;;;;22.07;53.12;99558.69;4484448;32;35026;-63
2022/09/01 06:14:33;;;;;;;;;;;;;;;22.59;51.34;99556.72;4479058;32;33660;-63
2022/09/01 06:17:01;;;;;;;;;;;;;;;22.45;51.93;99563.94;4478396;32;35201;-63
2022/09/01 06:19:32;;;;;;;;;;;;;;;22.46;51.86;99569.19;4482033;32;35669;-63
2022/09/01 06:22:03;;;;;;;;;;;;;;;22.39;52.36;99570.16;4482978;32;34948;-63
2022/09/01 06:24:31;;;;;;;;;;;;;;;22.56;51.95;99571.56;4480521;32;32155;-61
2022/09/01 06:26:58;;;;;;;;;;;;;;;22.72;51.22;99570.44;4482800;32;34898;-60
2022/09/01 06:29:26;;;;;;;;;;;;;;;22.55;51.27;99575.34;4479114;31;35548;-63
2022/09/01 06:31:53;;;;;;;;;;;;;;;22.34;52.26;99573.47;4482941;32;34124;-62
2022/09/01 06:34:21;;;;;;;;;;;;;;;22.19;53.05;99579.00;4473712;32;32977;-62
2022/09/01 06:36:50;;;;;;;;;;;;;;;22.56;51.53;99575.13;4481146;32;33988;-61
2022/09/01 06:39:20;;;;;;;;;;;;;;;22.60;51.20;99578.34;4483247;32;34160;-62
2022/09/01 06:41:51;;;;;;;;;;;;;;;22.71;50.31;99583.25;4480283;32;34942;-62
2022/09/01 06:44:21;;;;;;;;;;;;;;;22.75;50.25;99576.34;4481801;32;32442;-61
2022/09/01 06:46:51;;;;;;;;;;;;;;;22.81;50.28;99585.62;4479747;32;32962;-62
2022/09/01 06:49:20;;;;;;;;;;;;;;;22.61;51.13;99582.75;4484694;32;35542;-61
2022/09/01 06:51:51;;;;;;;;;;;;;;;22.69;50.73;99587.22;4479184;32;33557;-61
2022/09/01 06:54:21;;;;;;;;;;;;;;;22.62;50.46;99592.59;4483104;32;32604;-61
2022/09/01 06:56:49;;;;;;;;;;;;;;;22.69;50.88;99587.22;4481849;32;34201;-61
2022/09/01 06:59:37;;;;;;;;;;;;;;;22.48;52.00;99597.09;4480842;32;34217;-61
2022/09/01 07:02:05;;;;;;;;;;;;;;;22.73;51.49;99596.72;4467698;32;32887;-62
2022/09/01 07:04:42;;;;;;;;;;;;;;;22.84;49.54;99603.50;4479212;32;32185;-61
2022/09/01 07:07:11;;;;;;;;;;;;;;;22.60;51.14;99605.63;4484384;32;33245;-61
2022/09/01 07:10:03;;;;;;;;;;;;;;;22.64;51.03;99611.53;4483895;32;33027;-61
2022/09/01 07:12:48;;;;;;;;;;;;;;;22.52;52.18;99619.37;4479289;32;34306;-61
2022/09/01 07:15:34;;;;;;;;;;;;;;;22.55;52.46;99614.38;4483459;32;33379;-61
2022/09/01 07:18:24;;;;;;;;;;;;;;;22.47;52.98;99614.53;4479112;32;33733;-61
2022/09/01 07:20:52;;;;;;;;;;;;;;;22.91;51.25;99616.16;4485127;32;32821;-61
2022/09/01 07:23:42;;;;;;;;;;;;;;;22.71;51.68;99612.41;4477349;32;33732;-62
2022/09/01 07:26:32;;;;;;;;;;;;;;;22.72;51.38;99614.94;4475640;32;33640;-62
2022/09/01 07:29:02;;;;;;;;;;;;;;;22.76;51.18;99620.84;4479836;32;33818;-61
2022/09/01 07:31:35;;;;;;;;;;;;;;;22.52;50.96;99620.22;4473632;32;35130;-61
2022/09/01 07:34:25;;;;;;;;;;;;;;;22.37;52.93;99622.16;4475224;32;34264;-61
2022/09/01 07:37:12;;;;;;;;;;;;;;;22.75;51.98;99613.72;4476588;32;33230;-61
2022/09/01 07:40:01;;;;;;;;;;;;;;;22.00;54.30;99626.75;4468731;32;34003;-61
2022/09/01 07:42:54;;;;;;;;;;;;;;;22.33;54.24;99621.69;4482548;32;35485;-62
2022/09/01 07:45:33;;;;;;;;;;;;;;;22.35;53.62;99629.69;4475193;32;32810;-61
2022/09/01 07:48:02;;;;;;;;;;;;;;;22.13;54.36;99623.34;4485672;32;34496;-61
2022/09/01 07:50:39;;;;;;;;;;;;;;;22.35;52.96;99613.34;4481202;32;34946;-61
2022/09/01 07:53:30;;;;;;;;;;;;;;;22.32;52.67;99609.12;4485712;32;33919;-61
2022/09/01 07:55:58;;;;;;;;;;;;;;;22.51;52.78;99615.81;4482608;32;34117;-61
2022/09/01 07:58:27;;;;;;;;;;;;;;;22.89;51.84;99611.91;4485641;32;33359;-61
2022/09/01 08:00:56;;;;;;;;;;;;;;;22.31;50.32;99612.91;4483959;32;34614;-61
2022/09/01 08:03:24;;;;;;;;;;;;;;;22.32;51.34;99614.56;4479123;32;34587;-62
2022/09/01 08:05:56;;;;;;;;;;;;;;;22.56;50.45;99618.78;4477845;32;33765;-61
2022/09/01 08:08:24;;;;;;;;;;;;;;;22.48;51.38;99618.94;4484879;32;33386;-61
2022/09/01 08:10:55;;;;;;;;;;;;;;;22.71;51.44;99612.41;4480742;32;35251;-61
2022/09/01 08:13:34;;;;;;;;;;;;;;;22.78;49.58;99614.16;4484371;32;34296;-61
2022/09/01 08:16:08;;;;;;;;;;;;;;;22.52;51.67;99616.66;4481272;32;32451;-61
2022/09/01 08:18:46;;;;;;;;;;;;;;;22.85;51.24;99619.66;4482898;32;33328;-61
2022/09/01 08:21:20;;;;;;;;;;;;;;;22.50;51.27;99618.72;4480454;32;32960;-61
2022/09/01 08:23:53;;;;;;;;;;;;;;;22.67;51.53;99617.44;4484126;32;34067;-62
2022/09/01 08:26:21;;;;;;;;;;;;;;;22.65;51.98;99629.56;4476485;32;32826;-61
2022/09/01 08:28:49;;;;;;;;;;;;;;;22.65;51.24;99630.41;4471914;32;32245;-62
2022/09/01 08:31:23;;;;;;;;;;;;;;;22.48;52.04;99624.38;4480289;31;36986;-62
2022/09/01 08:33:52;;;;;;;;;;;;;;;22.51;51.89;99621.25;4482957;32;34266;-62
2022/09/01 08:36:20;;;;;;;;;;;;;;;22.66;51.26;99628.53;4477746;32;33540;-61
2022/09/01 08:38:52;;;;;;;;;;;;;;;22.84;50.86;99634.34;4484024;32;33335;-62
2022/09/01 08:41:38;;;;;;;;;;;;;;;22.82;49.67;99630.13;4483461;32;32514;-63
2022/09/01 08:44:31;;;;;;;;;;;;;;;22.91;50.49;99635.25;4477386;32;35355;-62
2022/09/01 08:47:00;;;;;;;;;;;;;;;22.77;50.75;99644.38;4474726;32;33948;-62
2022/09/01 08:49:28;;;;;;;;;;;;;;;22.86;50.91;99643.19;4477693;32;33154;-62
2022/09/01 08:52:17;;;;;;;;;;;;;;;22.76;51.45;99642.66;4474341;32;34102;-62
2022/09/01 08:54:46;;;;;;;;;;;;;;;22.88;51.70;99637.53;4476974;32;35494;-61
2022/09/01 08:57:18;;;;;;;;;;;;;;;22.85;51.74;99637.94;4480299;32;33929;-62
2022/09/01 08:59:48;;;;;;;;;;;;;;;23.08;51.25;99641.31;4480219;32;33261;-62
2022/09/01 09:02:22;;;;;;;;;;;;;;;22.89;50.33;99636.47;4478019;32;34408;-62
2022/09/01 09:04:56;;;;;;;;;;;;;;;23.12;49.44;99636.31;4481764;32;35246;-62
2022/09/01 09:07:35;;;;;;;;;;;;;;;23.11;50.20;99642.78;4483254;32;34105;-62
2022/09/01 09:10:26;;;;;;;;;;;;;;;22.87;50.33;99639.44;4478063;32;33251;-63
2022/09/01 09:12:54;;;;;;;;;;;;;;;23.04;49.22;99645.47;4473067;32;34345;-62
2022/09/01 09:15:36;;;;;;;;;;;;;;;23.04;49.48;99639.16;4483833;32;33023;-62
2022/09/01 09:18:07;;;;;;;;;;;;;;;23.14;50.17;99637.78;4477686;32;34743;-62
2022/09/01 09:20:50;;;;;;;;;;;;;;;23.31;50.50;99634.75;4478197;32;33756;-63
2022/09/01 09:23:22;;;;;;;;;;;;;;;23.14;52.06;99623.28;4460457;32;32396;-63
2022/09/01 09:25:50;;;;;;;;;;;;;;;23.40;49.94;99622.59;4475387;32;35338;-62
2022/09/01 09:28:18;;;;;;;;;;;;;;;23.51;50.18;99621.22;4478147;32;34636;-62
2022/09/01 09:30:45;;;;;;;;;;;;;;;23.34;51.06;99607.91;4483284;32;34348;-62
2022/09/01 09:33:35;;;;;;;;;;;;;;;23.31;50.07;99610.19;4481776;32;33662;-62
2022/09/01 09:36:21;;;;;;;;;;;;;;;23.37;51.17;99601.16;4477974;32;34253;-62
2022/09/01 09:39:05;;;;;;;;;;;;;;;23.53;51.43;99603.59;4467974;32;33976;-62
2022/09/01 09:41:33;;;;;;;;;;;;;;;23.32;52.07;99609.12;4477644;32;31871;-62
2022/09/01 09:44:05;;;;;;;;;;;;;;;23.66;50.76;99609.12;4480610;32;34650;-62
2022/09/01 09:46:38;;;;;;;;;;;;;;;23.76;50.17;99606.03;4476202;32;36110;-62
2022/09/01 09:49:10;;;;;;;;;;;;;;;23.89;48.35;99600.62;4473370;32;34073;-61
2022/09/01 09:51:39;;;;;;;;;;;;;;;23.79;48.91;99602.03;4480286;32;34238;-62
2022/09/01 09:54:12;;;;;;;;;;;;;;;23.78;49.79;99611.28;4476380;32;33382;-62
2022/09/01 09:56:45;;;;;;;;;;;;;;;23.76;50.96;99597.84;4484167;32;33473;-62
2022/09/01 09:59:19;;;;;;;;;;;;;;;23.70;49.59;99602.22;4479453;32;34179;-62
2022/09/01 10:02:19;;;;;;;;;;;;;;;23.87;49.79;99599.97;4478581;32;33317;-61
2022/09/01 10:04:49;;;;;;;;;;;;;;;23.47;49.80;99598.94;4482103;32;33726;-62
2022/09/01 10:07:29;;;;;;;;;;;;;;;23.34;49.29;99596.09;4476196;32;33825;-62
2022/09/01 10:10:00;;;;;;;;;;;;;;;23.60;49.88;99596.25;4470185;32;34206;-62
2022/09/01 10:12:28;;;;;;;;;;;;;;;23.93;47.97;99599.16;4470014;32;33615;-61
2022/09/01 10:14:57;;;;;;;;;;;;;;;23.57;51.23;99604.87;4473417;32;34179;-62
2022/09/01 10:17:34;;;;;;;;;;;;;;;23.37;51.49;99593.84;4478102;32;34031;-62
2022/09/01 10:20:13;;;;;;;;;;;;;;;23.44;50.18;99599.34;4478566;32;34228;-62
2022/09/01 10:22:41;;;;;;;;;;;;;;;23.58;45.52;99592.03;4470619;32;33407;-61
2022/09/01 10:25:13;;;;;;;;;;;;;;;23.50;48.95;99595.81;4479642;32;34155;-61
2022/09/01 10:27:41;;;;;;;;;;;;;;;23.43;51.29;99589.44;4472197;32;35376;-61
2022/09/01 10:30:12;;;;;;;;;;;;;;;23.15;46.14;99597.69;4479685;32;35188;-61
2022/09/01 10:32:50;;;;;;;;;;;;;;;22.83;47.76;99596.37;4481279;32;34445;-62
2022/09/01 10:35:27;;;;;;;;;;;;;;;23.76;44.34;99584.19;4475310;32;35285;-61
2022/09/01 10:37:56;;;;;;;;;;;;;;;23.30;46.74;99579.28;4474218;32;34344;-61
2022/09/01 10:40:28;;;;;;;;;;;;;;;23.87;44.25;99582.75;4466096;32;34110;-61
2022/09/01 10:42:59;;;;;;;;;;;;;;;22.89;45.40;99582.78;4475983;32;33311;-61
2022/09/01 10:45:37;;;;;;;;;;;;;;;23.41;43.64;99580.63;4475856;32;32688;-61
2022/09/01 10:48:35;;;;;;;;;;;;;;;23.56;44.05;99580.47;4467389;32;32790;-61
2022/09/01 10:51:18;;;;;;;;;;;;;;;23.58;41.52;99584.69;4473395;32;32651;-61
2022/09/01 10:53:48;;;;;;;;;;;;;;;23.80;43.07;99579.97;4471795;32;32847;-61
2022/09/01 10:56:20;;;;;;;;;;;;;;;23.74;41.51;99577.22;4481349;32;34659;-61
2022/09/01 10:59:04;;;;;;;;;;;;;;;23.67;42.88;99574.44;4479445;32;33981;-60
2022/09/01 11:01:52;;;;;;;;;;;;;;;23.66;41.57;99573.59;4472313;32;33282;-61
2022/09/01 11:04:39;;;;;;;;;;;;;;;23.43;41.40;99576.63;4472778;32;33235;-61
2022/09/01 11:07:19;;;;;;;;;;;;;;;23.61;41.20;99569.78;4478783;32;34228;-61
2022/09/01 11:10:07;;;;;;;;;;;;;;;23.01;42.05;99570.28;4478911;32;34372;-61
2022/09/01 11:12:56;;;;;;;;;;;;;;;23.87;40.52;99577.28;4481682;32;32995;-62
2022/09/01 11:15:38;;;;;;;;;;;;;;;23.66;40.09;99578.22;4480048;32;33398;-61
2022/09/01 11:18:15;;;;;;;;;;;;;;;24.31;39.88;99582.22;4478445;32;32866;-62
2022/09/01 11:20:45;;;;;;;;;;;;;;;24.21;40.75;99570.84;4466050;32;34769;-61
2022/09/01 11:23:26;;;;;;;;;;;;;;;24.59;37.49;99568.41;4477882;32;35126;-61
2022/09/01 11:26:04;;;;;;;;;;;;;;;23.96;39.98;99567.84;4480260;32;33522;-61
2022/09/01 11:28:46;;;;;;;;;;;;;;;24.01;39.53;99570.78;4478926;32;33721;-61
2022/09/01 11:31:17;;;;;;;;;;;;;;;24.49;37.40;99567.13;4477784;32;34852;-62
2022/09/01 11:33:46;;;;;;;;;;;;;;;24.89;35.26;99573.44;4479807;32;33227;-61
2022/09/01 11:36:20;;;;;;;;;;;;;;;24.56;35.67;99577.03;4485836;32;33179;-61
2022/09/01 11:38:50;;;;;;;;;;;;;;;24.50;35.48;99564.19;4479857;32;33553;-61
2022/09/01 11:41:32;;;;;;;;;;;;;;;24.61;34.88;99570.91;4480492;32;34451;-62
2022/09/01 11:44:01;;;;;;;;;;;;;;;24.15;34.85;99561.59;4474968;32;34250;-61
2022/09/01 11:46:33;;;;;;;;;;;;;;;24.17;35.53;99566.81;4471787;32;32129;-62
2022/09/01 11:49:09;;;;;;;;;;;;;;;24.31;35.10;99564.97;4483477;32;34069;-61
2022/09/01 11:51:38;;;;;;;;;;;;;;;23.97;36.52;99555.84;4465146;32;34292;-61
2022/09/01 11:54:05;;;;;;;;;;;;;;;24.22;34.98;99555.28;4477154;32;33064;-61
2022/09/01 11:56:33;;;;;;;;;;;;;;;23.92;34.77;99561.94;4481013;32;33251;-61
2022/09/01 11:59:00;;;;;;;;;;;;;;;23.89;35.28;99553.31;4481903;32;32876;-61
2022/09/01 12:01:35;;;;;;;;;;;;;;;24.52;34.67;99559.31;4477983;32;32978;-62
2022/09/01 12:04:18;;;;;;;;;;;;;;;24.01;35.20;99553.53;4478314;32;33915;-61
2022/09/01 12:06:50;;;;;;;;;;;;;;;23.79;35.18;99540.06;4484383;32;32160;-61
2022/09/01 12:09:18;;;;;;;;;;;;;;;24.30;36.32;99553.22;4481518;32;34996;-62
2022/09/01 12:11:45;;;;;;;;;;;;;;;24.47;35.83;99547.34;4471608;32;33931;-62
2022/09/01 12:14:18;;;;;;;;;;;;;;;24.68;33.56;99538.06;4482782;32;32773;-61
2022/09/01 12:16:47;;;;;;;;;;;;;;;24.15;35.14;99538.88;4483499;32;33654;-62
2022/09/01 12:19:21;;;;;;;;;;;;;;;24.56;34.18;99538.72;4478385;32;32515;-61
2022/09/01 12:21:55;;;;;;;;;;;;;;;24.20;34.53;99550.00;4469979;32;34158;-61
2022/09/01 12:24:23;;;;;;;;;;;;;;;24.26;35.29;99549.19;4478660;32;34000;-62
2022/09/01 12:26:53;;;;;;;;;;;;;;;24.15;33.86;99545.19;4475931;32;32779;-61
2022/09/01 12:29:21;;;;;;;;;;;;;;;23.67;33.96;99541.66;4476310;32;35126;-61
2022/09/01 12:31:51;;;;;;;;;;;;;;;23.76;34.05;99540.47;4477844;32;32950;-62
2022/09/01 12:34:37;;;;;;;;;;;;;;;23.83;35.29;99535.00;4477011;32;34840;-61
2022/09/01 12:37:08;;;;;;;;;;;;;;;24.16;34.38;99532.34;4482580;32;33827;-61
2022/09/01 12:39:35;;;;;;;;;;;;;;;24.21;34.91;99538.03;4482428;32;35227;-61
2022/09/01 12:42:07;;;;;;;;;;;;;;;24.41;33.52;99529.88;4482883;32;34171;-62
2022/09/01 12:44:38;;;;;;;;;;;;;;;24.39;33.89;99534.69;4479851;32;36010;-61
2022/09/01 12:47:07;;;;;;;;;;;;;;;24.78;33.98;99539.34;4474762;32;33081;-62
2022/09/01 12:49:36;;;;;;;;;;;;;;;24.08;35.65;99532.56;4472874;32;34299;-62
2022/09/01 12:52:26;;;;;;;;;;;;;;;24.14;35.84;99540.78;4478736;32;33724;-62
2022/09/01 12:54:57;;;;;;;;;;;;;;;24.44;35.19;99528.63;4474540;32;34254;-62
2022/09/01 12:57:32;;;;;;;;;;;;;;;24.37;34.43;99523.97;4469697;32;32255;-62
2022/09/01 13:00:18;;;;;;;;;;;;;;;24.33;35.64;99530.91;4471770;32;31999;-62
2022/09/01 13:02:48;;;;;;;;;;;;;;;24.63;34.43;99525.03;4471945;32;35064;-62
2022/09/01 13:05:19;;;;;;;;;;;;;;;25.01;34.23;99521.63;4468682;32;33941;-62
2022/09/01 13:07:47;;;;;;;;;;;;;;;25.04;33.26;99523.91;4471467;32;33509;-62
2022/09/01 13:10:14;;;;;;;;;;;;;;;24.72;33.19;99537.47;4479296;32;34307;-61
2022/09/01 13:12:42;;;;;;;;;;;;;;;25.26;33.88;99516.31;4476877;32;32878;-62
2022/09/01 13:15:10;;;;;;;;;;;;;;;25.62;34.29;99517.62;4480232;32;35254;-62
2022/09/01 13:17:40;;;;;;;;;;;;;;;26.03;31.85;99519.97;4481207;32;32622;-61